Terminal Aerodrome Forecast
Issued by NWS

Home | Current Version | Previous Version | Text Only | Print | Product List | Glossary On
Versions: 1 2 3 4 5 6 7 8 9 10 11 12 13 14 15 16 17 18
000
FTUS43 KBIS 231730
TAFMOT
TAF
KMOT 231730Z 2318/2418 25011KT P6SM SCT020
     FM232200 25008KT P6SM BKN025
     FM240100 20008KT P6SM SCT110=

USA.gov is the U.S. government's official web portal to all federal, state and local government web resources and services.